sensor_id;sensor_type;location;lat;lon;timestamp;pressure;altitude;pressure_sealevel;temperature;humidity
12471;BME280;36499;46.484;13.832;2023-04-22T00:00:18;93021.75;;;6.16;87.84
12471;BME280;36499;46.484;13.832;2023-04-22T00:02:45;93021.91;;;6.08;87.63
12471;BME280;36499;46.484;13.832;2023-04-22T00:05:12;93017.28;;;6.04;87.66
12471;BME280;36499;46.484;13.832;2023-04-22T00:07:40;93023.44;;;6.03;88.66
12471;BME280;36499;46.484;13.832;2023-04-22T00:10:09;93030.59;;;6.01;89.42
12471;BME280;36499;46.484;13.832;2023-04-22T00:12:36;93023.41;;;5.96;89.40
12471;BME280;36499;46.484;13.832;2023-04-22T00:15:04;93015.75;;;5.88;90.07
12471;BME280;36499;46.484;13.832;2023-04-22T00:17:33;93018.69;;;5.64;91.37
12471;BME280;36499;46.484;13.832;2023-04-22T00:20:00;93020.34;;;5.71;92.33
12471;BME280;36499;46.484;13.832;2023-04-22T00:22:28;93018.28;;;5.82;90.86
12471;BME280;36499;46.484;13.832;2023-04-22T00:24:55;93012.53;;;5.86;90.12
12471;BME280;36499;46.484;13.832;2023-04-22T00:27:22;93012.28;;;5.81;89.56
12471;BME280;36499;46.484;13.832;2023-04-22T00:29:49;93018.31;;;5.67;89.62
12471;BME280;36499;46.484;13.832;2023-04-22T00:32:16;93017.22;;;5.55;91.99
12471;BME280;36499;46.484;13.832;2023-04-22T00:34:44;93011.84;;;5.56;92.27
12471;BME280;36499;46.484;13.832;2023-04-22T00:37:11;93019.28;;;5.45;93.55
12471;BME280;36499;46.484;13.832;2023-04-22T00:39:38;93010.69;;;5.59;92.78
12471;BME280;36499;46.484;13.832;2023-04-22T00:42:06;93015.44;;;5.55;92.54
12471;BME280;36499;46.484;13.832;2023-04-22T00:44:35;93021.97;;;5.51;92.68
12471;BME280;36499;46.484;13.832;2023-04-22T00:47:04;93023.53;;;5.31;93.16
12471;BME280;36499;46.484;13.832;2023-04-22T00:49:32;93029.56;;;5.38;92.42
12471;BME280;36499;46.484;13.832;2023-04-22T00:52:02;93028.03;;;5.44;92.08
12471;BME280;36499;46.484;13.832;2023-04-22T00:54:30;93026.50;;;5.49;91.03
12471;BME280;36499;46.484;13.832;2023-04-22T00:56:58;93025.69;;;5.49;90.44
12471;BME280;36499;46.484;13.832;2023-04-22T00:59:25;93027.13;;;5.51;90.36
12471;BME280;36499;46.484;13.832;2023-04-22T01:01:53;93028.66;;;5.46;90.62
12471;BME280;36499;46.484;13.832;2023-04-22T01:04:22;93029.94;;;5.35;92.04
12471;BME280;36499;46.484;13.832;2023-04-22T01:06:51;93017.72;;;5.29;93.14
12471;BME280;36499;46.484;13.832;2023-04-22T01:09:20;93029.66;;;5.30;93.97
12471;BME280;36499;46.484;13.832;2023-04-22T01:11:47;93031.53;;;5.36;93.48
12471;BME280;36499;46.484;13.832;2023-04-22T01:14:14;93028.19;;;5.21;94.54
12471;BME280;36499;46.484;13.832;2023-04-22T01:16:42;93029.06;;;5.28;93.74
12471;BME280;36499;46.484;13.832;2023-04-22T01:19:10;93026.38;;;5.36;93.81
12471;BME280;36499;46.484;13.832;2023-04-22T01:21:39;93016.25;;;5.41;93.43
12471;BME280;36499;46.484;13.832;2023-04-22T01:24:08;93016.53;;;5.46;92.21
12471;BME280;36499;46.484;13.832;2023-04-22T01:26:35;93017.69;;;5.44;91.58
12471;BME280;36499;46.484;13.832;2023-04-22T01:29:04;93018.03;;;5.41;90.54
12471;BME280;36499;46.484;13.832;2023-04-22T01:31:33;93017.63;;;5.37;90.79
12471;BME280;36499;46.484;13.832;2023-04-22T01:34:00;93022.44;;;5.40;91.21
12471;BME280;36499;46.484;13.832;2023-04-22T01:36:28;93024.56;;;5.37;90.50
12471;BME280;36499;46.484;13.832;2023-04-22T01:38:56;93026.09;;;5.31;90.39
12471;BME280;36499;46.484;13.832;2023-04-22T01:41:25;93024.47;;;5.09;91.17
12471;BME280;36499;46.484;13.832;2023-04-22T01:43:53;93025.19;;;4.88;90.57
12471;BME280;36499;46.484;13.832;2023-04-22T01:46:20;93018.78;;;4.84;93.31
12471;BME280;36499;46.484;13.832;2023-04-22T01:48:47;93016.81;;;5.01;92.71
12471;BME280;36499;46.484;13.832;2023-04-22T01:51:16;93017.59;;;5.16;91.97
12471;BME280;36499;46.484;13.832;2023-04-22T01:53:45;93011.56;;;5.30;91.42
12471;BME280;36499;46.484;13.832;2023-04-22T01:56:12;93012.88;;;5.41;90.88
12471;BME280;36499;46.484;13.832;2023-04-22T01:58:41;93008.72;;;5.40;90.89
12471;BME280;36499;46.484;13.832;2023-04-22T02:01:11;93008.88;;;5.38;90.85
12471;BME280;36499;46.484;13.832;2023-04-22T02:03:38;93010.59;;;5.31;89.74
12471;BME280;36499;46.484;13.832;2023-04-22T02:06:06;93008.22;;;5.15;90.05
12471;BME280;36499;46.484;13.832;2023-04-22T02:08:33;93009.72;;;5.24;89.62
12471;BME280;36499;46.484;13.832;2023-04-22T02:11:01;93009.25;;;5.35;90.04
12471;BME280;36499;46.484;13.832;2023-04-22T02:13:35;93004.13;;;5.20;90.35
12471;BME280;36499;46.484;13.832;2023-04-22T02:16:04;93007.34;;;5.08;91.08
12471;BME280;36499;46.484;13.832;2023-04-22T02:18:31;93003.72;;;5.02;90.85
12471;BME280;36499;46.484;13.832;2023-04-22T02:20:59;93006.13;;;5.04;90.95
12471;BME280;36499;46.484;13.832;2023-04-22T02:23:26;93002.50;;;4.98;92.51
12471;BME280;36499;46.484;13.832;2023-04-22T02:25:54;92995.66;;;4.91;93.57
12471;BME280;36499;46.484;13.832;2023-04-22T02:28:22;92999.28;;;4.96;93.33
12471;BME280;36499;46.484;13.832;2023-04-22T02:30:49;92999.78;;;5.06;92.10
12471;BME280;36499;46.484;13.832;2023-04-22T02:33:17;93004.94;;;5.06;91.69
12471;BME280;36499;46.484;13.832;2023-04-22T02:35:44;92998.00;;;5.07;91.14
12471;BME280;36499;46.484;13.832;2023-04-22T02:38:12;92998.38;;;5.04;90.66
12471;BME280;36499;46.484;13.832;2023-04-22T02:40:39;93003.91;;;5.01;90.70
12471;BME280;36499;46.484;13.832;2023-04-22T02:43:06;92999.56;;;4.87;91.55
12471;BME280;36499;46.484;13.832;2023-04-22T02:45:33;93003.72;;;4.88;92.39
12471;BME280;36499;46.484;13.832;2023-04-22T02:48:00;93007.84;;;4.82;93.35
12471;BME280;36499;46.484;13.832;2023-04-22T02:50:31;93007.75;;;4.90;93.33
12471;BME280;36499;46.484;13.832;2023-04-22T02:52:58;92998.84;;;4.93;91.23
12471;BME280;36499;46.484;13.832;2023-04-22T02:55:26;92999.81;;;4.92;91.34
12471;BME280;36499;46.484;13.832;2023-04-22T02:57:53;92999.19;;;4.90;90.07
12471;BME280;36499;46.484;13.832;2023-04-22T03:00:20;93000.00;;;4.90;91.13
12471;BME280;36499;46.484;13.832;2023-04-22T03:02:47;93001.34;;;4.86;90.74
12471;BME280;36499;46.484;13.832;2023-04-22T03:05:14;92998.13;;;4.84;91.35
12471;BME280;36499;46.484;13.832;2023-04-22T03:07:42;92998.22;;;4.76;92.76
12471;BME280;36499;46.484;13.832;2023-04-22T03:10:12;93001.25;;;4.79;92.26
12471;BME280;36499;46.484;13.832;2023-04-22T03:12:39;92998.31;;;4.82;91.95
12471;BME280;36499;46.484;13.832;2023-04-22T03:15:07;93001.06;;;4.81;92.12
12471;BME280;36499;46.484;13.832;2023-04-22T03:17:35;92998.50;;;4.81;91.72
12471;BME280;36499;46.484;13.832;2023-04-22T03:20:02;93007.22;;;4.80;91.45
12471;BME280;36499;46.484;13.832;2023-04-22T03:22:29;93000.28;;;4.80;90.50
12471;BME280;36499;46.484;13.832;2023-04-22T03:24:58;93008.47;;;4.69;92.24
12471;BME280;36499;46.484;13.832;2023-04-22T03:27:25;93010.09;;;4.70;92.00
12471;BME280;36499;46.484;13.832;2023-04-22T03:29:52;93001.69;;;4.68;92.43
12471;BME280;36499;46.484;13.832;2023-04-22T03:32:19;93014.38;;;4.63;93.61
12471;BME280;36499;46.484;13.832;2023-04-22T03:34:46;93009.81;;;4.65;92.88
12471;BME280;36499;46.484;13.832;2023-04-22T03:37:13;93010.00;;;4.64;93.85
12471;BME280;36499;46.484;13.832;2023-04-22T03:39:40;93007.66;;;4.69;92.87
12471;BME280;36499;46.484;13.832;2023-04-22T03:42:10;93007.66;;;4.69;91.29
12471;BME280;36499;46.484;13.832;2023-04-22T03:44:37;93008.47;;;4.69;91.72
12471;BME280;36499;46.484;13.832;2023-04-22T03:47:04;93009.44;;;4.68;90.51
12471;BME280;36499;46.484;13.832;2023-04-22T03:49:31;93004.47;;;4.67;90.43
12471;BME280;36499;46.484;13.832;2023-04-22T03:51:58;92999.13;;;4.54;91.49
12471;BME280;36499;46.484;13.832;2023-04-22T03:54:26;92996.63;;;4.46;92.92
12471;BME280;36499;46.484;13.832;2023-04-22T03:56:53;93004.66;;;4.51;92.17
12471;BME280;36499;46.484;13.832;2023-04-22T03:59:21;93002.53;;;4.40;93.34
12471;BME280;36499;46.484;13.832;2023-04-22T04:01:50;93005.63;;;4.35;94.14
12471;BME280;36499;46.484;13.832;2023-04-22T04:04:18;93004.94;;;4.41;93.62
12471;BME280;36499;46.484;13.832;2023-04-22T04:06:45;93003.41;;;4.47;93.43
12471;BME280;36499;46.484;13.832;2023-04-22T04:09:12;93002.25;;;4.49;92.86
12471;BME280;36499;46.484;13.832;2023-04-22T04:11:39;93007.97;;;4.45;92.70
12471;BME280;36499;46.484;13.832;2023-04-22T04:14:06;93006.00;;;4.32;93.65
12471;BME280;36499;46.484;13.832;2023-04-22T04:16:36;92995.59;;;4.25;94.46
12471;BME280;36499;46.484;13.832;2023-04-22T04:19:04;92998.31;;;4.24;94.60
12471;BME280;36499;46.484;13.832;2023-04-22T04:21:31;92999.50;;;4.36;93.88
12471;BME280;36499;46.484;13.832;2023-04-22T04:23:59;93005.19;;;4.31;94.73
12471;BME280;36499;46.484;13.832;2023-04-22T04:26:26;93000.03;;;4.31;94.85
12471;BME280;36499;46.484;13.832;2023-04-22T04:28:53;93004.47;;;4.38;94.68
12471;BME280;36499;46.484;13.832;2023-04-22T04:31:21;92997.28;;;4.33;94.59
12471;BME280;36499;46.484;13.832;2023-04-22T04:33:50;93003.66;;;4.22;95.50
12471;BME280;36499;46.484;13.832;2023-04-22T04:36:18;93003.03;;;4.20;95.93
12471;BME280;36499;46.484;13.832;2023-04-22T04:38:45;92995.66;;;4.32;94.94
12471;BME280;36499;46.484;13.832;2023-04-22T04:41:13;93002.97;;;4.28;95.48
12471;BME280;36499;46.484;13.832;2023-04-22T04:43:40;93000.38;;;4.28;95.58
12471;BME280;36499;46.484;13.832;2023-04-22T04:46:11;92994.94;;;4.23;95.25
12471;BME280;36499;46.484;13.832;2023-04-22T04:48:39;93007.59;;;4.33;95.48
12471;BME280;36499;46.484;13.832;2023-04-22T04:51:08;93006.06;;;4.39;95.07
12471;BME280;36499;46.484;13.832;2023-04-22T04:53:36;92999.38;;;4.15;96.11
12471;BME280;36499;46.484;13.832;2023-04-22T04:56:03;93006.03;;;3.95;96.81
12471;BME280;36499;46.484;13.832;2023-04-22T04:58:31;93004.00;;;4.05;97.04
12471;BME280;36499;46.484;13.832;2023-04-22T05:00:58;93007.09;;;4.15;96.15
12471;BME280;36499;46.484;13.832;2023-04-22T05:03:25;93016.03;;;4.27;95.25
12471;BME280;36499;46.484;13.832;2023-04-22T05:05:52;93017.84;;;4.41;94.54
12471;BME280;36499;46.484;13.832;2023-04-22T05:08:20;93007.41;;;4.49;94.63
12471;BME280;36499;46.484;13.832;2023-04-22T05:10:47;93016.22;;;4.55;94.14
12471;BME280;36499;46.484;13.832;2023-04-22T05:13:15;93010.72;;;4.58;93.55
12471;BME280;36499;46.484;13.832;2023-04-22T05:15:42;93017.31;;;4.60;93.81
12471;BME280;36499;46.484;13.832;2023-04-22T05:18:09;93016.66;;;4.58;94.36
12471;BME280;36499;46.484;13.832;2023-04-22T05:20:36;93019.16;;;4.66;94.79
12471;BME280;36499;46.484;13.832;2023-04-22T05:23:03;93015.25;;;4.70;94.87
12471;BME280;36499;46.484;13.832;2023-04-22T05:25:32;93014.78;;;4.81;95.55
12471;BME280;36499;46.484;13.832;2023-04-22T05:27:59;93022.09;;;4.93;95.77
12471;BME280;36499;46.484;13.832;2023-04-22T05:30:26;93009.13;;;5.07;95.76
12471;BME280;36499;46.484;13.832;2023-04-22T05:32:53;93011.56;;;5.30;96.34
12471;BME280;36499;46.484;13.832;2023-04-22T05:35:20;93014.84;;;5.39;95.59
12471;BME280;36499;46.484;13.832;2023-04-22T05:37:47;93020.09;;;5.45;95.84
12471;BME280;36499;46.484;13.832;2023-04-22T05:40:14;93008.28;;;5.57;95.38
12471;BME280;36499;46.484;13.832;2023-04-22T05:42:43;93008.75;;;5.67;96.44
12471;BME280;36499;46.484;13.832;2023-04-22T05:45:10;93002.13;;;5.79;96.49
12471;BME280;36499;46.484;13.832;2023-04-22T05:47:38;93011.06;;;5.98;96.84
12471;BME280;36499;46.484;13.832;2023-04-22T05:50:06;92998.69;;;6.21;95.88
12471;BME280;36499;46.484;13.832;2023-04-22T05:52:33;93007.00;;;6.38;95.54
12471;BME280;36499;46.484;13.832;2023-04-22T05:55:01;93007.06;;;6.51;94.74
12471;BME280;36499;46.484;13.832;2023-04-22T05:57:28;93005.75;;;6.62;94.79
12471;BME280;36499;46.484;13.832;2023-04-22T05:59:57;93005.47;;;6.85;94.18
12471;BME280;36499;46.484;13.832;2023-04-22T06:02:24;93005.53;;;6.98;94.11
12471;BME280;36499;46.484;13.832;2023-04-22T06:04:51;93004.41;;;7.20;93.93
12471;BME280;36499;46.484;13.832;2023-04-22T06:07:18;92994.09;;;7.40;94.67
12471;BME280;36499;46.484;13.832;2023-04-22T06:09:45;92987.75;;;7.55;92.76
12471;BME280;36499;46.484;13.832;2023-04-22T06:12:12;92984.81;;;7.71;91.65
12471;BME280;36499;46.484;13.832;2023-04-22T06:14:46;92986.00;;;7.89;91.36
12471;BME280;36499;46.484;13.832;2023-04-22T06:17:14;92978.81;;;8.04;90.21
12471;BME280;36499;46.484;13.832;2023-04-22T06:19:41;92974.44;;;8.24;89.08
12471;BME280;36499;46.484;13.832;2023-04-22T06:22:08;92981.44;;;8.43;88.40
12471;BME280;36499;46.484;13.832;2023-04-22T06:24:35;92983.22;;;8.49;87.68
12471;BME280;36499;46.484;13.832;2023-04-22T06:27:02;92979.22;;;8.66;87.42
12471;BME280;36499;46.484;13.832;2023-04-22T06:29:29;92981.50;;;9.01;87.07
12471;BME280;36499;46.484;13.832;2023-04-22T06:31:56;92979.63;;;9.14;85.22
12471;BME280;36499;46.484;13.832;2023-04-22T06:34:25;92978.41;;;9.17;84.14
12471;BME280;36499;46.484;13.832;2023-04-22T06:36:52;92978.94;;;9.32;84.93
12471;BME280;36499;46.484;13.832;2023-04-22T06:39:19;92979.25;;;9.55;84.57
12471;BME280;36499;46.484;13.832;2023-04-22T06:41:46;92978.00;;;9.64;83.33
12471;BME280;36499;46.484;13.832;2023-04-22T06:44:14;92979.06;;;9.88;83.93
12471;BME280;36499;46.484;13.832;2023-04-22T06:46:41;92977.25;;;9.89;81.17
12471;BME280;36499;46.484;13.832;2023-04-22T06:49:08;92979.63;;;9.90;80.58
12471;BME280;36499;46.484;13.832;2023-04-22T06:51:37;92973.44;;;10.16;80.04
12471;BME280;36499;46.484;13.832;2023-04-22T06:54:04;92970.16;;;10.27;80.16
12471;BME280;36499;46.484;13.832;2023-04-22T06:56:31;92965.31;;;10.55;78.15
12471;BME280;36499;46.484;13.832;2023-04-22T06:58:58;92961.97;;;10.48;76.69
12471;BME280;36499;46.484;13.832;2023-04-22T07:01:25;92964.47;;;10.80;75.97
12471;BME280;36499;46.484;13.832;2023-04-22T07:03:52;92962.13;;;11.08;75.30
12471;BME280;36499;46.484;13.832;2023-04-22T07:06:19;92960.66;;;11.30;74.57
12471;BME280;36499;46.484;13.832;2023-04-22T07:08:48;92952.56;;;11.50;73.29
12471;BME280;36499;46.484;13.832;2023-04-22T07:11:15;92956.38;;;11.66;71.60
12471;BME280;36499;46.484;13.832;2023-04-22T07:13:42;92951.72;;;11.86;71.73
12471;BME280;36499;46.484;13.832;2023-04-22T07:16:09;92948.34;;;12.09;70.71
12471;BME280;36499;46.484;13.832;2023-04-22T07:18:36;92949.16;;;12.09;69.31
12471;BME280;36499;46.484;13.832;2023-04-22T07:21:04;92945.31;;;12.23;68.09
12471;BME280;36499;46.484;13.832;2023-04-22T07:23:31;92948.41;;;12.43;68.99
12471;BME280;36499;46.484;13.832;2023-04-22T07:26:00;92938.72;;;12.56;66.96
12471;BME280;36499;46.484;13.832;2023-04-22T07:28:27;92936.22;;;12.72;65.58
12471;BME280;36499;46.484;13.832;2023-04-22T07:30:54;92938.69;;;12.79;64.03
12471;BME280;36499;46.484;13.832;2023-04-22T07:33:21;92937.22;;;12.83;63.53
12471;BME280;36499;46.484;13.832;2023-04-22T07:35:48;92937.31;;;12.99;63.63
12471;BME280;36499;46.484;13.832;2023-04-22T07:38:16;92938.09;;;13.23;64.55
12471;BME280;36499;46.484;13.832;2023-04-22T07:40:43;92938.25;;;13.45;65.08
12471;BME280;36499;46.484;13.832;2023-04-22T07:43:11;92939.66;;;13.64;61.41
12471;BME280;36499;46.484;13.832;2023-04-22T07:45:38;92936.50;;;13.79;61.15
12471;BME280;36499;46.484;13.832;2023-04-22T07:48:06;92940.78;;;13.85;61.38
12471;BME280;36499;46.484;13.832;2023-04-22T07:50:33;92941.63;;;14.02;60.32
12471;BME280;36499;46.484;13.832;2023-04-22T07:53:00;92937.44;;;14.18;60.02
12471;BME280;36499;46.484;13.832;2023-04-22T07:55:27;92941.84;;;14.46;61.56
12471;BME280;36499;46.484;13.832;2023-04-22T07:57:54;92941.41;;;14.70;58.25
12471;BME280;36499;46.484;13.832;2023-04-22T08:00:22;92939.22;;;15.01;57.07
12471;BME280;36499;46.484;13.832;2023-04-22T08:02:49;92936.84;;;15.21;58.58
12471;BME280;36499;46.484;13.832;2023-04-22T08:05:17;92936.44;;;15.29;54.73
12471;BME280;36499;46.484;13.832;2023-04-22T08:07:44;92928.47;;;15.46;55.96
12471;BME280;36499;46.484;13.832;2023-04-22T08:10:11;92925.59;;;15.69;56.51
12471;BME280;36499;46.484;13.832;2023-04-22T08:12:38;92925.28;;;15.92;56.22
12471;BME280;36499;46.484;13.832;2023-04-22T08:15:06;92920.53;;;16.16;55.06
12471;BME280;36499;46.484;13.832;2023-04-22T08:17:35;92911.44;;;16.33;53.14
12471;BME280;36499;46.484;13.832;2023-04-22T08:20:02;92918.22;;;16.56;54.82
12471;BME280;36499;46.484;13.832;2023-04-22T08:22:30;92910.78;;;16.85;54.32
12471;BME280;36499;46.484;13.832;2023-04-22T08:24:58;92906.59;;;16.89;50.86
12471;BME280;36499;46.484;13.832;2023-04-22T08:27:25;92903.31;;;17.19;54.97
12471;BME280;36499;46.484;13.832;2023-04-22T08:29:52;92905.22;;;17.34;51.25
12471;BME280;36499;46.484;13.832;2023-04-22T08:32:19;92910.78;;;17.37;51.16
12471;BME280;36499;46.484;13.832;2023-04-22T08:34:49;92904.28;;;17.60;51.18
12471;BME280;36499;46.484;13.832;2023-04-22T08:37:16;92903.50;;;17.64;49.87
12471;BME280;36499;46.484;13.832;2023-04-22T08:39:44;92904.34;;;17.80;50.19
12471;BME280;36499;46.484;13.832;2023-04-22T08:42:12;92902.50;;;17.86;49.24
12471;BME280;36499;46.484;13.832;2023-04-22T08:44:40;92901.16;;;17.88;50.83
12471;BME280;36499;46.484;13.832;2023-04-22T08:47:09;92900.13;;;17.94;49.68
12471;BME280;36499;46.484;13.832;2023-04-22T08:49:37;92896.47;;;18.10;48.64
12471;BME280;36499;46.484;13.832;2023-04-22T08:52:05;92896.47;;;18.10;45.18
12471;BME280;36499;46.484;13.832;2023-04-22T08:54:34;92901.75;;;18.36;48.62
12471;BME280;36499;46.484;13.832;2023-04-22T08:57:03;92897.78;;;18.38;48.99
12471;BME280;36499;46.484;13.832;2023-04-22T08:59:30;92894.38;;;18.53;47.97
12471;BME280;36499;46.484;13.832;2023-04-22T09:01:58;92898.88;;;18.62;47.93
12471;BME280;36499;46.484;13.832;2023-04-22T09:04:25;92899.13;;;18.66;46.76
12471;BME280;36499;46.484;13.832;2023-04-22T09:06:52;92899.63;;;18.68;47.33
12471;BME280;36499;46.484;13.832;2023-04-22T09:09:21;92891.97;;;18.77;47.62
12471;BME280;36499;46.484;13.832;2023-04-22T09:11:49;92890.63;;;18.89;46.91
12471;BME280;36499;46.484;13.832;2023-04-22T09:14:16;92892.72;;;18.87;44.89
12471;BME280;36499;46.484;13.832;2023-04-22T09:16:47;92888.78;;;18.85;44.39
12471;BME280;36499;46.484;13.832;2023-04-22T09:19:14;92891.44;;;18.90;43.99
12471;BME280;36499;46.484;13.832;2023-04-22T09:21:41;92891.16;;;18.91;45.22
12471;BME280;36499;46.484;13.832;2023-04-22T09:24:10;92892.44;;;18.99;44.38
12471;BME280;36499;46.484;13.832;2023-04-22T09:26:41;92879.22;;;19.09;45.33
12471;BME280;36499;46.484;13.832;2023-04-22T09:29:14;92885.81;;;19.16;46.42
12471;BME280;36499;46.484;13.832;2023-04-22T09:31:46;92887.59;;;19.31;42.20
12471;BME280;36499;46.484;13.832;2023-04-22T09:34:13;92883.09;;;19.42;43.61
12471;BME280;36499;46.484;13.832;2023-04-22T09:36:42;92874.31;;;19.41;43.35
12471;BME280;36499;46.484;13.832;2023-04-22T09:39:11;92860.00;;;19.62;46.51
12471;BME280;36499;46.484;13.832;2023-04-22T09:41:40;92861.97;;;19.86;46.69
12471;BME280;36499;46.484;13.832;2023-04-22T09:44:10;92849.66;;;20.05;45.16
12471;BME280;36499;46.484;13.832;2023-04-22T09:46:40;92854.59;;;20.17;45.14
12471;BME280;36499;46.484;13.832;2023-04-22T09:49:08;92850.00;;;19.93;40.98
12471;BME280;36499;46.484;13.832;2023-04-22T09:51:40;92843.81;;;20.08;46.28
12471;BME280;36499;46.484;13.832;2023-04-22T09:54:09;92846.41;;;20.13;44.36
12471;BME280;36499;46.484;13.832;2023-04-22T09:56:44;92845.91;;;20.11;44.19
12471;BME280;36499;46.484;13.832;2023-04-22T09:59:14;92849.97;;;19.98;43.65
12471;BME280;36499;46.484;13.832;2023-04-22T10:01:41;92845.38;;;20.09;44.73
12471;BME280;36499;46.484;13.832;2023-04-22T10:04:09;92845.63;;;20.13;44.14
12471;BME280;36499;46.484;13.832;2023-04-22T10:06:38;92839.84;;;20.05;42.44
12471;BME280;36499;46.484;13.832;2023-04-22T10:09:05;92843.72;;;20.18;43.97
12471;BME280;36499;46.484;13.832;2023-04-22T10:11:33;92843.97;;;20.22;43.36
12471;BME280;36499;46.484;13.832;2023-04-22T10:14:02;92840.50;;;20.26;44.65
12471;BME280;36499;46.484;13.832;2023-04-22T10:16:32;92840.19;;;20.33;44.58
12471;BME280;36499;46.484;13.832;2023-04-22T10:19:03;92834.56;;;20.39;43.55
12471;BME280;36499;46.484;13.832;2023-04-22T10:21:33;92835.81;;;20.47;43.79
12471;BME280;36499;46.484;13.832;2023-04-22T10:24:02;92831.97;;;20.34;44.70
12471;BME280;36499;46.484;13.832;2023-04-22T10:26:47;92828.31;;;20.30;45.47
12471;BME280;36499;46.484;13.832;2023-04-22T10:29:19;92832.75;;;20.64;45.21
12471;BME280;36499;46.484;13.832;2023-04-22T10:31:54;92826.63;;;20.68;42.89
12471;BME280;36499;46.484;13.832;2023-04-22T10:34:23;92828.72;;;20.95;43.62
12471;BME280;36499;46.484;13.832;2023-04-22T10:37:05;92827.03;;;20.80;41.40
12471;BME280;36499;46.484;13.832;2023-04-22T10:39:33;92821.72;;;20.56;42.43
12471;BME280;36499;46.484;13.832;2023-04-22T10:42:11;92821.38;;;20.63;43.77
12471;BME280;36499;46.484;13.832;2023-04-22T10:44:50;92822.41;;;20.38;43.39
12471;BME280;36499;46.484;13.832;2023-04-22T10:47:26;92826.47;;;20.26;43.65
12471;BME280;36499;46.484;13.832;2023-04-22T10:50:19;92820.78;;;20.08;44.00
12471;BME280;36499;46.484;13.832;2023-04-22T10:52:49;92816.88;;;20.35;45.75
12471;BME280;36499;46.484;13.832;2023-04-22T10:55:18;92812.50;;;20.49;43.74
12471;BME280;36499;46.484;13.832;2023-04-22T10:57:48;92816.38;;;20.62;43.95
12471;BME280;36499;46.484;13.832;2023-04-22T11:00:20;92808.03;;;20.73;42.13
12471;BME280;36499;46.484;13.832;2023-04-22T11:02:52;92810.34;;;20.80;42.07
12471;BME280;36499;46.484;13.832;2023-04-22T11:05:23;92809.91;;;20.73;42.63
12471;BME280;36499;46.484;13.832;2023-04-22T11:07:54;92809.19;;;20.62;42.83
12471;BME280;36499;46.484;13.832;2023-04-22T11:10:37;92809.16;;;20.67;45.40
12471;BME280;36499;46.484;13.832;2023-04-22T11:13:09;92815.56;;;20.61;42.91
12471;BME280;36499;46.484;13.832;2023-04-22T11:15:41;92809.25;;;20.57;43.15
12471;BME280;36499;46.484;13.832;2023-04-22T11:18:20;92814.09;;;20.50;43.94
12471;BME280;36499;46.484;13.832;2023-04-22T11:20:49;92803.88;;;20.62;42.35
12471;BME280;36499;46.484;13.832;2023-04-22T11:23:20;92798.28;;;20.69;43.67
12471;BME280;36499;46.484;13.832;2023-04-22T11:25:53;92796.34;;;20.74;41.68
12471;BME280;36499;46.484;13.832;2023-04-22T11:28:20;92794.84;;;20.68;43.20
12471;BME280;36499;46.484;13.832;2023-04-22T11:30:49;92799.16;;;20.59;41.62
12471;BME280;36499;46.484;13.832;2023-04-22T11:33:17;92797.22;;;20.70;42.49
12471;BME280;36499;46.484;13.832;2023-04-22T11:35:48;92797.38;;;20.78;43.43
12471;BME280;36499;46.484;13.832;2023-04-22T11:38:15;92795.63;;;20.92;43.63
12471;BME280;36499;46.484;13.832;2023-04-22T11:40:43;92793.13;;;21.01;42.79
12471;BME280;36499;46.484;13.832;2023-04-22T11:43:11;92801.25;;;20.86;41.19
12471;BME280;36499;46.484;13.832;2023-04-22T11:45:39;92797.59;;;20.82;42.50
12471;BME280;36499;46.484;13.832;2023-04-22T11:48:09;92798.09;;;20.60;42.18
12471;BME280;36499;46.484;13.832;2023-04-22T11:50:39;92801.53;;;20.32;41.78
12471;BME280;36499;46.484;13.832;2023-04-22T11:53:13;92802.56;;;20.36;44.13
12471;BME280;36499;46.484;13.832;2023-04-22T11:55:43;92796.38;;;20.45;42.65
12471;BME280;36499;46.484;13.832;2023-04-22T11:58:13;92793.50;;;20.42;41.15
12471;BME280;36499;46.484;13.832;2023-04-22T12:00:43;92788.19;;;20.71;41.61
12471;BME280;36499;46.484;13.832;2023-04-22T12:03:15;92787.81;;;21.01;41.67
12471;BME280;36499;46.484;13.832;2023-04-22T12:05:46;92782.66;;;21.15;41.47
12471;BME280;36499;46.484;13.832;2023-04-22T12:08:15;92772.94;;;21.05;40.51
12471;BME280;36499;46.484;13.832;2023-04-22T12:10:49;92783.31;;;21.01;41.46
12471;BME280;36499;46.484;13.832;2023-04-22T12:13:18;92782.34;;;21.40;41.64
12471;BME280;36499;46.484;13.832;2023-04-22T12:15:46;92788.00;;;21.33;39.81
12471;BME280;36499;46.484;13.832;2023-04-22T12:18:15;92779.94;;;21.20;41.05
12471;BME280;36499;46.484;13.832;2023-04-22T12:20:42;92781.78;;;21.19;40.95
12471;BME280;36499;46.484;13.832;2023-04-22T12:23:14;92776.78;;;21.18;40.92
12471;BME280;36499;46.484;13.832;2023-04-22T12:25:41;92772.50;;;21.40;40.48
12471;BME280;36499;46.484;13.832;2023-04-22T12:28:09;92777.22;;;21.25;38.59
12471;BME280;36499;46.484;13.832;2023-04-22T12:30:37;92771.84;;;21.11;38.83
12471;BME280;36499;46.484;13.832;2023-04-22T12:33:04;92760.75;;;21.04;41.50
12471;BME280;36499;46.484;13.832;2023-04-22T12:35:33;92773.34;;;20.93;40.50
12471;BME280;36499;46.484;13.832;2023-04-22T12:38:00;92769.22;;;20.82;40.10
12471;BME280;36499;46.484;13.832;2023-04-22T12:40:28;92759.88;;;20.66;40.34
12471;BME280;36499;46.484;13.832;2023-04-22T12:42:55;92765.00;;;20.81;40.68
12471;BME280;36499;46.484;13.832;2023-04-22T12:45:22;92761.81;;;20.84;38.55
12471;BME280;36499;46.484;13.832;2023-04-22T12:47:50;92753.91;;;20.79;39.20
12471;BME280;36499;46.484;13.832;2023-04-22T12:50:20;92754.03;;;20.69;39.94
12471;BME280;36499;46.484;13.832;2023-04-22T12:52:48;92755.88;;;20.69;40.07
12471;BME280;36499;46.484;13.832;2023-04-22T12:55:16;92757.22;;;20.66;39.94
12471;BME280;36499;46.484;13.832;2023-04-22T12:57:47;92750.19;;;20.80;39.36
12471;BME280;36499;46.484;13.832;2023-04-22T13:00:15;92738.31;;;20.54;40.04